Time;durP1;ratioP1;P1;durP2;ratioP2;P2;SDS_P1;SDS_P2;PMS_P1;PMS_P2;Temp;Humidity;BMP_temperature;BMP_pressure;BME280_temperature;BME280_humidity;BME280_pressure;Samples;Min_cycle;Max_cycle;Signal;HPM_P1;HPM_P2
2020/12/06 00:01:45;;;;;;;0.20;0.20;;;4.70;99.90;;;;;;5034698;28;20442;-89
2020/12/06 00:04:11;;;;;;;0.20;0.20;;;4.80;99.90;;;;;;5030800;28;20079;-89
2020/12/06 00:06:38;;;;;;;0.47;0.47;;;4.80;99.90;;;;;;5062104;28;20062;-89
2020/12/06 00:09:07;;;;;;;0.10;0.10;;;4.90;99.90;;;;;;5061620;28;20024;-89
2020/12/06 00:11:34;;;;;;;0.10;0.10;;;4.80;12.70;;;;;;5032265;28;20067;-89
2020/12/06 00:14:00;;;;;;;0.68;0.68;;;4.80;1.00;;;;;;5050388;28;20064;-90
2020/12/06 00:16:26;;;;;;;0.10;0.10;;;4.90;1.00;;;;;;5036052;28;20091;-88
2020/12/06 00:18:51;;;;;;;0.10;0.10;;;4.90;99.90;;;;;;5034565;28;20032;-89
2020/12/06 00:21:19;;;;;;;0.30;0.30;;;4.80;99.90;;;;;;5055659;28;20123;-89
2020/12/06 00:23:46;;;;;;;0.10;0.10;;;4.90;99.90;;;;;;5029914;28;20401;-89
2020/12/06 00:26:14;;;;;;;0.38;0.38;;;4.80;99.90;;;;;;5043253;28;20028;-89
2020/12/06 00:28:39;;;;;;;0.10;0.10;;;4.80;99.90;;;;;;5032392;28;20506;-89
2020/12/06 00:31:05;;;;;;;0.13;0.13;;;4.80;99.90;;;;;;5020144;28;20036;-90
2020/12/06 00:33:31;;;;;;;1.13;0.70;;;4.90;99.90;;;;;;5018828;28;20374;-90
2020/12/06 00:35:57;;;;;;;0.20;0.20;;;4.80;99.90;;;;;;5031768;28;20032;-89
2020/12/06 00:38:24;;;;;;;0.10;0.10;;;4.80;99.90;;;;;;5032800;28;20056;-89
2020/12/06 00:40:49;;;;;;;0.10;0.10;;;4.80;59.00;;;;;;5019595;28;20577;-90
2020/12/06 00:43:15;;;;;;;0.10;0.10;;;4.80;99.90;;;;;;5030726;28;20119;-90
2020/12/06 00:45:41;;;;;;;0.90;0.90;;;4.80;99.90;;;;;;5044585;28;20029;-89
2020/12/06 00:48:07;;;;;;;0.10;0.10;;;4.90;20.00;;;;;;5029860;28;20112;-90
2020/12/06 00:50:32;;;;;;;0.15;0.15;;;4.90;1.00;;;;;;5025862;28;20030;-89
2020/12/06 00:52:58;;;;;;;0.10;0.10;;;5.00;1.00;;;;;;5015803;28;20028;-90
2020/12/06 00:55:24;;;;;;;0.32;0.32;;;4.90;85.60;;;;;;5061344;28;20025;-91
2020/12/06 00:57:50;;;;;;;0.00;0.00;;;4.90;33.80;;;;;;5041170;28;20060;-91
2020/12/06 01:00:16;;;;;;;0.20;0.20;;;4.90;20.80;;;;;;5032425;28;20024;-91
2020/12/06 01:02:42;;;;;;;0.38;0.38;;;5.00;99.90;;;;;;5055370;28;20432;-89
2020/12/06 01:05:08;;;;;;;0.10;0.10;;;5.00;99.90;;;;;;5038968;28;20120;-89
2020/12/06 01:07:38;;;;;;;0.10;0.10;;;5.00;99.90;;;;;;5045846;28;20135;-90
2020/12/06 01:10:06;;;;;;;0.10;0.10;;;5.00;81.80;;;;;;5036298;28;20143;-89
2020/12/06 01:12:33;;;;;;;0.63;0.45;;;5.00;70.60;;;;;;5049074;28;20394;-89
2020/12/06 01:14:58;;;;;;;0.10;0.10;;;4.90;1.00;;;;;;5029416;28;20520;-88
2020/12/06 01:17:24;;;;;;;0.30;0.30;;;4.90;99.90;;;;;;5023029;28;20038;-88
2020/12/06 01:19:50;;;;;;;0.10;0.10;;;4.90;99.90;;;;;;5059190;28;20060;-87
2020/12/06 01:22:16;;;;;;;0.28;0.28;;;5.00;99.90;;;;;;5029361;28;20406;-89
2020/12/06 01:24:42;;;;;;;0.10;0.10;;;5.00;99.90;;;;;;5033672;28;20491;-89
2020/12/06 01:27:08;;;;;;;0.05;0.05;;;5.00;99.90;;;;;;5032863;28;20112;-89
2020/12/06 01:29:34;;;;;;;2.03;0.40;;;5.00;41.60;;;;;;5016012;28;20393;-88
2020/12/06 01:32:01;;;;;;;0.10;0.10;;;5.10;3.70;;;;;;5035043;28;20021;-89
2020/12/06 01:34:27;;;;;;;0.10;0.10;;;5.00;1.00;;;;;;5055634;28;20033;-90
2020/12/06 01:36:53;;;;;;;0.10;0.10;;;5.00;99.90;;;;;;5036033;28;20021;-89
2020/12/06 01:39:19;;;;;;;1.00;0.80;;;5.10;99.90;;;;;;5024782;28;20403;-88
2020/12/06 01:41:45;;;;;;;0.10;0.10;;;5.10;99.90;;;;;;5018868;28;20037;-88
2020/12/06 01:44:11;;;;;;;0.10;0.10;;;5.00;99.90;;;;;;5038199;28;20447;-88
2020/12/06 01:46:38;;;;;;;0.20;0.20;;;5.00;99.90;;;;;;5037284;28;20025;-88
2020/12/06 01:49:05;;;;;;;0.38;0.30;;;5.00;99.90;;;;;;5047481;28;20024;-88
2020/12/06 01:51:32;;;;;;;;;;;5.10;99.90;;;;;;5029334;28;20037;-88
2020/12/06 01:53:58;;;;;;;;;;;5.00;30.70;;;;;;5031562;28;19905;-89
2020/12/06 01:56:23;;;;;;;0.00;0.00;;;4.90;1.00;;;;;;5051618;28;20059;-88
2020/12/06 01:58:49;;;;;;;0.30;0.30;;;4.90;1.00;;;;;;5029796;28;20029;-87
2020/12/06 02:01:15;;;;;;;0.10;0.10;;;4.90;1.00;;;;;;5026933;28;20086;-87
2020/12/06 02:03:41;;;;;;;0.20;0.20;;;4.90;1.00;;;;;;5051395;28;20039;-88
2020/12/06 02:06:07;;;;;;;0.10;0.10;;;4.90;1.00;;;;;;5059193;28;20102;-86
2020/12/06 02:08:34;;;;;;;0.20;0.20;;;4.90;1.00;;;;;;5044979;28;20028;-87
2020/12/06 02:11:01;;;;;;;0.08;0.08;;;5.00;1.00;;;;;;5038020;28;20505;-87
2020/12/06 02:13:26;;;;;;;0.10;0.10;;;5.00;1.00;;;;;;5035726;28;20040;-88
2020/12/06 02:15:54;;;;;;;0.63;0.35;;;5.00;1.00;;;;;;5062942;28;20048;-87
2020/12/06 02:18:20;;;;;;;0.20;0.20;;;5.00;99.90;;;;;;5056191;28;20468;-87
2020/12/06 02:20:46;;;;;;;0.10;0.10;;;5.00;99.90;;;;;;5057808;28;20029;-87
2020/12/06 02:23:12;;;;;;;0.10;0.10;;;5.00;99.90;;;;;;5033607;28;20028;-88
2020/12/06 02:25:39;;;;;;;0.00;0.00;;;5.10;99.90;;;;;;5041883;28;20036;-88
2020/12/06 02:28:06;;;;;;;0.10;0.10;;;5.10;99.90;;;;;;5055146;28;20037;-88
2020/12/06 02:30:33;;;;;;;0.10;0.10;;;5.10;99.90;;;;;;5028509;28;20771;-89
2020/12/06 02:33:00;;;;;;;0.10;0.10;;;5.10;99.90;;;;;;5055383;28;20107;-91
2020/12/06 02:35:26;;;;;;;0.10;0.10;;;5.10;99.90;;;;;;5014737;28;20041;-90
2020/12/06 02:37:52;;;;;;;0.10;0.10;;;5.10;99.90;;;;;;5024420;28;20402;-90
2020/12/06 02:40:17;;;;;;;0.10;0.10;;;5.10;99.90;;;;;;5025373;28;20374;-90
2020/12/06 02:42:43;;;;;;;0.20;0.20;;;5.10;99.90;;;;;;5059644;28;20032;-90
2020/12/06 02:45:09;;;;;;;8.55;0.95;;;5.10;99.90;;;;;;5020902;28;20021;-91
2020/12/06 02:47:35;;;;;;;1.00;0.85;;;5.10;99.90;;;;;;5025922;28;20033;-91
2020/12/06 02:50:02;;;;;;;0.10;0.10;;;5.10;99.90;;;;;;5029587;28;20440;-91
2020/12/06 02:52:28;;;;;;;0.20;0.20;;;5.10;99.90;;;;;;5030943;28;20112;-91
2020/12/06 02:54:54;;;;;;;0.10;0.10;;;5.10;99.90;;;;;;5038733;28;20565;-90
2020/12/06 02:57:19;;;;;;;0.75;0.75;;;5.10;99.90;;;;;;5024355;28;20026;-92
2020/12/06 02:59:45;;;;;;;0.10;0.10;;;5.10;99.90;;;;;;5047243;28;20115;-92
2020/12/06 03:02:11;;;;;;;0.10;0.10;;;5.10;99.90;;;;;;5030493;28;20423;-91
2020/12/06 03:04:37;;;;;;;0.10;0.10;;;5.10;1.00;;;;;;5032649;28;20075;-91
2020/12/06 03:07:02;;;;;;;0.00;0.00;;;5.10;1.00;;;;;;5022720;28;20041;-91
2020/12/06 03:09:28;;;;;;;0.10;0.10;;;5.20;1.00;;;;;;5025641;28;20024;-92
2020/12/06 03:11:54;;;;;;;0.47;0.47;;;5.20;1.00;;;;;;5043977;28;20485;-91
2020/12/06 03:14:20;;;;;;;0.15;0.15;;;5.20;1.00;;;;;;5018633;28;20077;-88
2020/12/06 03:16:45;;;;;;;0.10;0.10;;;5.20;1.00;;;;;;5047067;28;20122;-89
2020/12/06 03:19:11;;;;;;;0.00;0.00;;;5.10;10.60;;;;;;5036776;28;20025;-89
2020/12/06 03:21:37;;;;;;;0.10;0.10;;;5.10;20.50;;;;;;5031850;28;20025;-89
2020/12/06 03:24:03;;;;;;;0.20;0.20;;;5.10;1.00;;;;;;5053980;28;20028;-89
2020/12/06 03:26:29;;;;;;;0.10;0.10;;;5.10;13.30;;;;;;5033412;28;20114;-90
2020/12/06 03:28:54;;;;;;;0.10;0.10;;;5.10;4.90;;;;;;5032546;28;20295;-88
2020/12/06 03:31:20;;;;;;;0.15;0.15;;;5.10;1.00;;;;;;5039832;28;20041;-90
2020/12/06 03:33:46;;;;;;;0.10;0.10;;;5.10;1.20;;;;;;5037019;28;20032;-88
2020/12/06 03:36:12;;;;;;;0.28;0.28;;;5.10;1.00;;;;;;5023214;28;20398;-89
2020/12/06 03:38:38;;;;;;;0.10;0.10;;;5.10;1.00;;;;;;5047046;28;20036;-90
2020/12/06 03:41:03;;;;;;;0.10;0.10;;;5.00;1.00;;;;;;5041580;28;20875;-90
2020/12/06 03:43:29;;;;;;;0.05;0.05;;;5.00;1.00;;;;;;5024611;28;20025;-91
2020/12/06 03:45:55;;;;;;;0.10;0.10;;;5.10;1.00;;;;;;5040596;28;20434;-90
2020/12/06 03:48:21;;;;;;;0.75;0.75;;;5.10;99.90;;;;;;5048118;28;20033;-90
2020/12/06 03:50:47;;;;;;;0.10;0.10;;;5.10;99.90;;;;;;5027750;28;20401;-92
2020/12/06 03:53:12;;;;;;;0.10;0.10;;;5.20;99.90;;;;;;5028113;28;20438;-93
2020/12/06 03:55:38;;;;;;;0.00;0.00;;;5.10;99.90;;;;;;5026619;28;20035;-93
2020/12/06 03:58:07;;;;;;;0.10;0.10;;;5.10;99.90;;;;;;5029429;28;20025;-93
2020/12/06 04:00:36;;;;;;;0.10;0.10;;;5.10;99.90;;;;;;5023047;28;20036;-91
2020/12/06 04:03:02;;;;;;;0.10;0.10;;;5.10;99.90;;;;;;5024526;28;20051;-92
2020/12/06 04:05:28;;;;;;;0.10;0.10;;;5.10;99.90;;;;;;5033706;28;20494;-92
2020/12/06 04:07:53;;;;;;;0.08;0.08;;;5.10;99.90;;;;;;5031751;28;20059;-91
2020/12/06 04:10:19;;;;;;;0.00;0.00;;;5.10;99.90;;;;;;5033159;28;20416;-92
2020/12/06 04:12:46;;;;;;;0.10;0.10;;;5.10;99.90;;;;;;5030028;28;20083;-92
2020/12/06 04:15:12;;;;;;;0.20;0.20;;;5.10;99.90;;;;;;5024374;28;20053;-91
2020/12/06 04:17:39;;;;;;;0.88;0.88;;;5.10;99.90;;;;;;5007369;28;20534;-91
2020/12/06 04:20:05;;;;;;;0.10;0.10;;;5.10;99.90;;;;;;5014580;28;20490;-91
2020/12/06 04:22:31;;;;;;;0.52;0.52;;;5.20;99.90;;;;;;4998665;28;20030;-91
2020/12/06 04:24:58;;;;;;;0.10;0.10;;;5.10;99.90;;;;;;4993563;28;20511;-91
2020/12/06 04:27:24;;;;;;;0.10;0.10;;;5.20;99.90;;;;;;5029077;28;20080;-90
2020/12/06 04:29:50;;;;;;;0.10;0.10;;;5.20;99.90;;;;;;4996823;28;20590;-90
2020/12/06 04:32:15;;;;;;;0.20;0.20;;;5.20;99.90;;;;;;5028834;28;20028;-91
2020/12/06 04:34:45;;;;;;;0.00;0.00;;;5.10;99.90;;;;;;5028676;28;20207;-90
2020/12/06 04:37:11;;;;;;;0.10;0.10;;;5.10;99.90;;;;;;4998567;28;20028;-90
2020/12/06 04:39:37;;;;;;;0.03;0.03;;;5.20;99.90;;;;;;5011377;28;20380;-92
2020/12/06 04:42:04;;;;;;;0.10;0.10;;;5.20;99.90;;;;;;5002227;28;20080;-91
2020/12/06 04:44:30;;;;;;;0.10;0.10;;;5.20;99.90;;;;;;5029204;28;20088;-91
2020/12/06 04:47:00;;;;;;;0.10;0.10;;;5.20;99.90;;;;;;5006971;28;20490;-92
2020/12/06 04:49:44;;;;;;;0.10;0.10;;;5.20;99.90;;;;;;5006323;28;20037;-91
2020/12/06 04:52:19;;;;;;;0.10;0.10;;;5.20;99.90;;;;;;5012175;28;20018;-91
2020/12/06 04:54:51;;;;;;;0.00;0.00;;;5.20;99.90;;;;;;5010081;28;20034;-91
2020/12/06 04:57:18;;;;;;;0.10;0.10;;;5.20;99.90;;;;;;5007719;28;20054;-91
2020/12/06 04:59:46;;;;;;;0.10;0.10;;;5.20;99.90;;;;;;5011279;28;20041;-91
2020/12/06 05:02:19;;;;;;;0.17;0.17;;;5.20;99.90;;;;;;5006289;28;20037;-89
2020/12/06 05:04:47;;;;;;;0.10;0.10;;;5.20;99.90;;;;;;4992458;28;20038;-90
2020/12/06 05:07:17;;;;;;;0.05;0.05;;;5.20;99.90;;;;;;5022732;28;20099;-90
2020/12/06 05:09:47;;;;;;;0.22;0.22;;;5.20;99.90;;;;;;5014524;28;20540;-91
2020/12/06 05:12:12;;;;;;;0.20;0.20;;;5.20;99.90;;;;;;5013169;28;20026;-90
2020/12/06 05:14:38;;;;;;;0.20;0.20;;;5.20;99.90;;;;;;5012586;28;20060;-90
2020/12/06 05:17:05;;;;;;;0.05;0.05;;;5.20;99.90;;;;;;5031595;28;20552;-89
2020/12/06 05:19:31;;;;;;;0.10;0.10;;;5.10;99.90;;;;;;5033963;28;20055;-90
2020/12/06 05:21:57;;;;;;;0.00;0.00;;;5.20;99.90;;;;;;5027209;28;20521;-90
2020/12/06 05:24:22;;;;;;;0.10;0.10;;;5.20;99.90;;;;;;5033579;28;20037;-89
2020/12/06 05:26:49;;;;;;;0.10;0.10;;;5.20;99.90;;;;;;5022229;28;20467;-90
2020/12/06 05:29:15;;;;;;;;;;;5.10;99.90;;;;;;5031065;28;20032;-90
2020/12/06 05:31:41;;;;;;;0.10;0.10;;;5.10;99.90;;;;;;5025617;28;19912;-89
2020/12/06 05:34:07;;;;;;;0.10;0.10;;;5.20;99.90;;;;;;5041625;28;20035;-89
2020/12/06 05:36:33;;;;;;;0.05;0.05;;;5.20;99.90;;;;;;5021283;28;20439;-89
2020/12/06 05:38:59;;;;;;;0.00;0.00;;;5.20;99.90;;;;;;5042171;28;20025;-89
2020/12/06 05:41:25;;;;;;;0.70;0.52;;;5.20;99.90;;;;;;5027192;28;20035;-89
2020/12/06 05:43:51;;;;;;;0.10;0.10;;;5.20;99.90;;;;;;5033045;28;20128;-89
2020/12/06 05:46:17;;;;;;;0.10;0.10;;;5.10;99.90;;;;;;5029149;28;20470;-89
2020/12/06 05:48:44;;;;;;;0.13;0.13;;;5.10;99.90;;;;;;5051087;28;20024;-89
2020/12/06 05:51:12;;;;;;;0.05;0.05;;;5.20;99.90;;;;;;5031540;28;20079;-91
2020/12/06 05:53:38;;;;;;;0.10;0.10;;;5.10;99.90;;;;;;5033612;28;20457;-91
2020/12/06 05:56:18;;;;;;;0.17;0.17;;;5.10;99.90;;;;;;5024994;28;20033;-89
2020/12/06 05:58:46;;;;;;;0.52;0.50;;;5.10;99.90;;;;;;5032978;28;20448;-89
2020/12/06 06:01:14;;;;;;;0.10;0.10;;;5.10;99.90;;;;;;5020501;28;20119;-91
2020/12/06 06:03:52;;;;;;;0.10;0.10;;;5.10;99.90;;;;;;5048426;28;20098;-90
2020/12/06 06:06:41;;;;;;;0.10;0.10;;;5.10;99.90;;;;;;5047003;28;20052;-90
2020/12/06 06:09:10;;;;;;;0.10;0.10;;;5.10;99.90;;;;;;5046819;28;20021;-90
2020/12/06 06:11:39;;;;;;;0.10;0.10;;;5.10;99.90;;;;;;5033363;28;20029;-90
2020/12/06 06:14:09;;;;;;;0.10;0.10;;;5.10;99.90;;;;;;5048391;28;20807;-91
2020/12/06 06:16:35;;;;;;;0.05;0.05;;;5.10;99.90;;;;;;5032154;28;20049;-91
2020/12/06 06:19:03;;;;;;;0.13;0.13;;;5.20;99.90;;;;;;5043954;28;20086;-92
2020/12/06 06:21:42;;;;;;;0.10;0.10;;;5.20;99.90;;;;;;5018214;28;20082;-92
2020/12/06 06:24:14;;;;;;;0.10;0.10;;;5.10;99.90;;;;;;5033912;28;20494;-91
2020/12/06 06:26:44;;;;;;;0.10;0.10;;;5.10;99.90;;;;;;5033066;28;20055;-91
2020/12/06 06:29:12;;;;;;;0.10;0.10;;;5.00;99.90;;;;;;5026030;28;20033;-91
2020/12/06 06:31:38;;;;;;;;;;;5.00;99.90;;;;;;5031807;28;20056;-93
2020/12/06 06:34:06;;;;;;;0.10;0.10;;;5.00;99.90;;;;;;5029536;28;19915;-92
2020/12/06 06:36:33;;;;;;;0.10;0.10;;;5.00;99.90;;;;;;5032883;28;20033;-91
2020/12/06 06:39:00;;;;;;;0.00;0.00;;;5.00;99.90;;;;;;5021869;28;20035;-91
2020/12/06 06:41:27;;;;;;;0.10;0.10;;;4.90;99.90;;;;;;5022213;28;20108;-91
2020/12/06 06:43:58;;;;;;;;;;;4.90;99.90;;;;;;5026009;28;20025;-92
2020/12/06 06:46:39;;;;;;;0.10;0.10;;;4.80;99.90;;;;;;5035636;28;19954;-91
2020/12/06 06:49:10;;;;;;;0.13;0.13;;;4.70;99.90;;;;;;5020493;28;20013;-90
2020/12/06 06:51:37;;;;;;;0.10;0.10;;;4.70;99.90;;;;;;5027348;28;20144;-92
2020/12/06 06:54:07;;;;;;;1.65;0.28;;;4.60;99.90;;;;;;5016792;28;20517;-93
2020/12/06 06:56:49;;;;;;;0.20;0.20;;;4.60;99.90;;;;;;5017293;28;20064;-92
2020/12/06 06:59:16;;;;;;;0.00;0.00;;;4.60;99.90;;;;;;5017598;28;20025;-93
2020/12/06 07:01:48;;;;;;;0.10;0.10;;;4.60;99.90;;;;;;5028330;28;20494;-91
2020/12/06 07:04:24;;;;;;;0.25;0.25;;;4.50;99.90;;;;;;5034480;28;20059;-92
2020/12/06 07:06:53;;;;;;;0.10;0.10;;;4.50;99.90;;;;;;5029924;28;20391;-90
2020/12/06 07:09:27;;;;;;;1.23;1.13;;;4.60;99.90;;;;;;5026398;28;20021;-90
2020/12/06 07:11:55;;;;;;;0.10;0.10;;;4.60;99.90;;;;;;5030311;28;20409;-88
2020/12/06 07:14:26;;;;;;;0.10;0.10;;;4.70;99.90;;;;;;5031837;28;20031;-90
2020/12/06 07:16:55;;;;;;;0.00;0.00;;;4.70;99.90;;;;;;5047527;28;20052;-90
2020/12/06 07:19:21;;;;;;;0.20;0.20;;;4.70;99.90;;;;;;5024672;28;20506;-89
2020/12/06 07:21:48;;;;;;;0.30;0.30;;;4.80;99.90;;;;;;5048715;28;20868;-89
2020/12/06 07:24:15;;;;;;;0.10;0.10;;;4.80;99.90;;;;;;5048172;28;20095;-90
2020/12/06 07:26:42;;;;;;;0.10;0.10;;;4.90;99.90;;;;;;5030996;28;20453;-89
2020/12/06 07:29:08;;;;;;;;;;;4.80;99.90;;;;;;5019859;28;20029;-89
2020/12/06 07:31:34;;;;;;;0.10;0.10;;;4.80;99.90;;;;;;5020827;28;19915;-85
2020/12/06 07:34:04;;;;;;;1.13;0.43;;;4.90;99.90;;;;;;5030315;28;20260;-86
2020/12/06 07:36:31;;;;;;;0.00;0.00;;;4.80;99.90;;;;;;5030988;28;20056;-87
2020/12/06 07:38:58;;;;;;;1.25;0.55;;;4.90;99.90;;;;;;5032275;28;20055;-93
2020/12/06 07:41:24;;;;;;;0.10;0.10;;;4.90;99.90;;;;;;5031728;28;20039;-85
2020/12/06 07:43:54;;;;;;;0.52;0.52;;;4.90;99.90;;;;;;5037506;28;20033;-92
2020/12/06 07:46:21;;;;;;;0.20;0.20;;;5.00;99.90;;;;;;5033219;28;20072;-91
2020/12/06 07:48:48;;;;;;;0.10;0.10;;;5.00;99.90;;;;;;5024249;28;20108;-91
2020/12/06 07:51:24;;;;;;;0.30;0.25;;;5.00;99.90;;;;;;5029152;28;20029;-92
2020/12/06 07:53:51;;;;;;;0.57;0.57;;;5.00;99.90;;;;;;5036794;28;20120;-91
2020/12/06 07:56:22;;;;;;;0.63;0.63;;;5.00;99.90;;;;;;5044030;28;20033;-92
2020/12/06 07:59:06;;;;;;;0.10;0.10;;;5.10;99.90;;;;;;5050351;28;20394;-92
2020/12/06 08:01:33;;;;;;;0.10;0.10;;;5.00;99.90;;;;;;5044242;28;20457;-90
2020/12/06 08:03:59;;;;;;;0.10;0.10;;;5.00;99.90;;;;;;5039933;28;20029;-89
2020/12/06 08:06:28;;;;;;;0.77;0.65;;;5.00;99.90;;;;;;5025297;28;20118;-89
2020/12/06 08:09:02;;;;;;;0.10;0.10;;;5.10;99.90;;;;;;5032689;28;20033;-88
2020/12/06 08:11:34;;;;;;;0.43;0.43;;;5.10;99.90;;;;;;5041680;28;20048;-89
2020/12/06 08:14:00;;;;;;;0.38;0.38;;;5.10;99.90;;;;;;5019915;28;20497;-92
2020/12/06 08:16:26;;;;;;;0.28;0.28;;;5.20;99.90;;;;;;5032921;28;20037;-90
2020/12/06 08:19:03;;;;;;;0.10;0.10;;;5.10;99.90;;;;;;5022186;28;20601;-88
2020/12/06 08:21:49;;;;;;;0.10;0.10;;;5.10;99.90;;;;;;5024048;28;20033;-88
2020/12/06 08:24:22;;;;;;;0.32;0.32;;;5.10;99.90;;;;;;5044349;28;20044;-89
2020/12/06 08:26:49;;;;;;;0.03;0.03;;;5.10;99.90;;;;;;5049669;28;20017;-92
2020/12/06 08:29:15;;;;;;;0.57;0.57;;;5.10;99.90;;;;;;5030756;28;20119;-89
2020/12/06 08:31:42;;;;;;;0.60;0.50;;;5.10;99.90;;;;;;5031725;28;20047;-87
2020/12/06 08:34:14;;;;;;;1.45;1.35;;;5.10;99.90;;;;;;5038174;28;20029;-91
2020/12/06 08:36:40;;;;;;;0.10;0.10;;;5.20;99.90;;;;;;5035193;28;20041;-89
2020/12/06 08:39:20;;;;;;;0.70;0.70;;;5.20;99.90;;;;;;5026546;28;20564;-91
2020/12/06 08:41:47;;;;;;;0.10;0.10;;;5.20;99.90;;;;;;5038561;28;20061;-89
2020/12/06 08:44:13;;;;;;;0.00;0.00;;;5.20;99.90;;;;;;5035456;28;20025;-88
2020/12/06 08:46:50;;;;;;;1.10;0.97;;;5.10;99.90;;;;;;5027953;28;20064;-89
2020/12/06 08:49:19;;;;;;;1.25;0.93;;;5.20;99.90;;;;;;5051361;28;20021;-87
2020/12/06 08:51:52;;;;;;;4.32;1.92;;;5.20;99.90;;;;;;5036570;28;20120;-91
2020/12/06 08:54:35;;;;;;;0.63;0.60;;;5.20;99.90;;;;;;5035338;28;20029;-88
2020/12/06 08:57:10;;;;;;;0.20;0.20;;;5.20;99.90;;;;;;5047531;28;20076;-91
2020/12/06 08:59:40;;;;;;;0.50;0.50;;;5.30;99.90;;;;;;5038626;28;20029;-93
2020/12/06 09:02:06;;;;;;;0.38;0.38;;;5.30;1.00;;;;;;5032939;28;20564;-94
2020/12/06 09:07:56;;;;;;;0.93;0.80;;;5.30;99.90;;;;;;5037418;28;20024;-93
2020/12/06 09:10:25;;;;;;;1.80;1.70;;;5.40;99.90;;;;;;5003615;28;20033;-93
2020/12/06 09:12:55;;;;;;;0.10;0.10;;;5.40;99.90;;;;;;5037908;28;20041;-93
2020/12/06 09:15:22;;;;;;;0.10;0.10;;;5.50;99.90;;;;;;5019825;28;20083;-94
2020/12/06 09:17:56;;;;;;;1.88;1.75;;;5.70;99.90;;;;;;5018250;28;20021;-94
2020/12/06 09:20:24;;;;;;;1.88;1.77;;;5.80;99.90;;;;;;5002774;28;20048;-93
2020/12/06 09:22:50;;;;;;;1.95;1.63;;;5.70;99.90;;;;;;5034518;28;20038;-94
2020/12/06 09:25:17;;;;;;;1.25;1.20;;;5.60;99.90;;;;;;5038821;28;20117;-94
2020/12/06 09:28:20;;;;;;;0.22;0.22;;;5.60;99.90;;;;;;5038540;28;20505;-93
2020/12/06 09:30:48;;;;;;;0.10;0.10;;;5.60;99.90;;;;;;5018783;28;20042;-91
2020/12/06 09:33:14;;;;;;;0.57;0.57;;;5.60;99.90;;;;;;5019369;28;20108;-91
2020/12/06 09:35:40;;;;;;;4.72;0.65;;;5.50;99.90;;;;;;5026630;28;20065;-90
2020/12/06 09:38:17;;;;;;;0.20;0.20;;;5.40;99.90;;;;;;5043233;28;20119;-90
2020/12/06 09:40:51;;;;;;;1.00;1.00;;;5.40;99.90;;;;;;5036232;28;20025;-91
2020/12/06 09:43:22;;;;;;;0.45;0.45;;;5.40;99.90;;;;;;5038464;28;20109;-90
2020/12/06 09:45:51;;;;;;;1.83;1.73;;;5.30;99.90;;;;;;5020430;28;20124;-92
2020/12/06 09:48:18;;;;;;;0.45;0.45;;;5.30;99.90;;;;;;5034975;28;20402;-90
2020/12/06 09:50:45;;;;;;;0.25;0.25;;;5.40;1.00;;;;;;5024807;28;20032;-91
2020/12/06 09:53:20;;;;;;;0.60;0.60;;;5.40;99.90;;;;;;5034446;28;20033;-92
2020/12/06 09:55:46;;;;;;;1.75;1.00;;;5.50;99.90;;;;;;5030834;28;20033;-91
2020/12/06 09:58:13;;;;;;;0.17;0.17;;;5.50;1.00;;;;;;5053218;28;20086;-89
2020/12/06 10:00:45;;;;;;;0.82;0.38;;;5.70;99.90;;;;;;5054362;28;20052;-93
2020/12/06 10:03:12;;;;;;;0.10;0.10;;;5.80;99.90;;;;;;5037318;28;20371;-92
2020/12/06 10:05:39;;;;;;;0.30;0.30;;;5.80;99.90;;;;;;5034895;28;20052;-88
2020/12/06 10:08:06;;;;;;;0.10;0.10;;;6.00;99.90;;;;;;5017163;28;20039;-89
2020/12/06 10:10:33;;;;;;;0.10;0.10;;;6.20;99.90;;;;;;5052533;28;20494;-88
2020/12/06 10:12:59;;;;;;;0.17;0.17;;;6.10;99.90;;;;;;5051835;28;20037;-89
2020/12/06 10:15:25;;;;;;;0.55;0.55;;;6.10;99.90;;;;;;5036466;28;20466;-89
2020/12/06 10:17:53;;;;;;;0.10;0.10;;;6.10;99.90;;;;;;5030399;28;20057;-89
2020/12/06 10:20:19;;;;;;;2.05;0.68;;;6.10;99.90;;;;;;5029218;28;20612;-87
2020/12/06 10:22:46;;;;;;;0.10;0.10;;;6.10;99.90;;;;;;5033359;28;20024;-88
2020/12/06 10:25:12;;;;;;;0.47;0.47;;;6.00;99.90;;;;;;5029398;28;20148;-88
2020/12/06 10:27:38;;;;;;;4.10;1.60;;;5.90;99.90;;;;;;5040818;28;20021;-88
2020/12/06 10:30:05;;;;;;;0.10;0.10;;;5.90;99.90;;;;;;5028833;28;20402;-87
2020/12/06 10:32:30;;;;;;;0.17;0.17;;;6.00;99.90;;;;;;5037641;28;20024;-86
2020/12/06 10:34:57;;;;;;;0.15;0.15;;;6.10;99.90;;;;;;5043519;28;20032;-88
2020/12/06 10:37:23;;;;;;;0.10;0.10;;;6.10;99.90;;;;;;5025942;28;20021;-86
2020/12/06 10:39:48;;;;;;;1.55;1.27;;;6.20;99.90;;;;;;5023195;28;20021;-88
2020/12/06 10:42:14;;;;;;;0.77;0.77;;;6.40;99.90;;;;;;5040876;28;20494;-90
2020/12/06 10:44:46;;;;;;;0.33;0.33;;;8.40;99.90;;;;;;5044947;28;20029;-88
2020/12/06 10:47:13;;;;;;;0.17;0.17;;;7.80;42.50;;;;;;5045558;28;20520;-89
2020/12/06 10:49:42;;;;;;;0.28;0.28;;;7.60;24.30;;;;;;5031477;28;20035;-88
2020/12/06 10:52:09;;;;;;;0.20;0.20;;;7.80;7.80;;;;;;5027767;28;20389;-88
2020/12/06 10:54:35;;;;;;;0.15;0.15;;;7.70;1.00;;;;;;5050964;28;20029;-89
2020/12/06 10:57:01;;;;;;;2.10;1.75;;;7.50;1.00;;;;;;5052396;28;20052;-91
2020/12/06 10:59:27;;;;;;;2.38;2.10;;;7.50;1.00;;;;;;5030670;28;20410;-91
2020/12/06 11:01:57;;;;;;;0.10;0.10;;;7.70;1.00;;;;;;5029477;28;20032;-89
2020/12/06 11:04:23;;;;;;;1.75;1.65;;;7.90;1.00;;;;;;5044072;28;20022;-88
2020/12/06 11:06:49;;;;;;;2.72;2.53;;;7.80;1.00;;;;;;5035050;28;20446;-86
2020/12/06 11:09:15;;;;;;;0.45;0.45;;;7.30;1.00;;;;;;5031150;28;20021;-86
2020/12/06 11:11:40;;;;;;;0.87;0.87;;;7.00;1.00;;;;;;5044532;28;20084;-87
2020/12/06 11:14:06;;;;;;;0.20;0.20;;;6.80;1.00;;;;;;5029953;28;20025;-87
2020/12/06 11:16:32;;;;;;;0.55;0.55;;;6.20;1.00;;;;;;5032273;28;20056;-87
2020/12/06 11:18:58;;;;;;;0.10;0.10;;;5.80;62.50;;;;;;5025840;28;20048;-86
2020/12/06 11:21:24;;;;;;;0.55;0.55;;;5.70;99.90;;;;;;5022577;28;20035;-86
2020/12/06 11:23:54;;;;;;;0.85;0.55;;;5.60;99.90;;;;;;5024244;28;20025;-86
2020/12/06 11:26:23;;;;;;;0.32;0.32;;;5.50;99.90;;;;;;5045044;28;20084;-88
2020/12/06 11:28:49;;;;;;;0.10;0.10;;;5.30;99.90;;;;;;5023248;28;20422;-87
2020/12/06 11:31:15;;;;;;;0.10;0.10;;;5.10;99.90;;;;;;5039486;28;20025;-87
2020/12/06 11:33:42;;;;;;;15.25;1.08;;;5.20;99.90;;;;;;5043962;28;20040;-86
2020/12/06 11:36:08;;;;;;;0.10;0.10;;;5.10;1.00;;;;;;5030240;28;20384;-88
2020/12/06 11:38:34;;;;;;;0.10;0.10;;;5.00;1.00;;;;;;5034332;28;20025;-90
2020/12/06 11:41:00;;;;;;;0.13;0.13;;;5.10;87.70;;;;;;5045841;28;20043;-88
2020/12/06 11:43:26;;;;;;;0.10;0.10;;;5.20;96.90;;;;;;5045614;28;20028;-88
2020/12/06 11:45:52;;;;;;;0.20;0.20;;;5.30;89.10;;;;;;5022060;28;20127;-86
2020/12/06 11:48:18;;;;;;;0.10;0.10;;;5.30;62.90;;;;;;5030038;28;20058;-86
2020/12/06 11:50:46;;;;;;;0.38;0.38;;;5.30;66.70;;;;;;5020040;28;20060;-86
2020/12/06 11:53:12;;;;;;;0.65;0.65;;;5.40;99.90;;;;;;5021434;28;20086;-87
2020/12/06 11:55:38;;;;;;;0.10;0.10;;;5.40;99.90;;;;;;5022379;28;20045;-87
2020/12/06 11:58:04;;;;;;;0.10;0.10;;;5.60;27.40;;;;;;5039650;28;20036;-86
2020/12/06 12:00:35;;;;;;;0.10;0.10;;;5.80;99.90;;;;;;5024538;28;20309;-86
2020/12/06 12:03:01;;;;;;;0.10;0.10;;;5.60;23.30;;;;;;5039031;28;20713;-86
2020/12/06 12:05:27;;;;;;;0.10;0.10;;;5.70;99.90;;;;;;5034116;28;20028;-87
2020/12/06 12:07:53;;;;;;;0.10;0.10;;;6.00;99.90;;;;;;5021870;28;20025;-88
2020/12/06 12:10:19;;;;;;;0.10;0.10;;;6.00;99.90;;;;;;5030316;28;20405;-88
2020/12/06 12:12:47;;;;;;;0.10;0.10;;;6.20;99.90;;;;;;5021621;28;20025;-87
2020/12/06 12:15:13;;;;;;;0.10;0.10;;;6.60;99.90;;;;;;5027111;28;20090;-87
2020/12/06 12:17:39;;;;;;;0.10;0.10;;;6.90;99.90;;;;;;5044440;28;20037;-88
2020/12/06 12:20:07;;;;;;;0.15;0.15;;;6.30;1.00;;;;;;5025661;28;20021;-87
2020/12/06 12:22:34;;;;;;;0.10;0.10;;;6.40;99.90;;;;;;5024681;28;20037;-86
2020/12/06 12:25:00;;;;;;;0.10;0.10;;;7.10;1.00;;;;;;5039089;28;20409;-86
2020/12/06 12:27:26;;;;;;;0.20;0.20;;;7.80;99.90;;;;;;5018614;28;20036;-87
2020/12/06 12:29:51;;;;;;;0.25;0.25;;;7.80;99.90;;;;;;5018389;28;20638;-87
2020/12/06 12:32:17;;;;;;;0.20;0.20;;;7.90;99.90;;;;;;5044525;28;20445;-90
2020/12/06 12:34:43;;;;;;;0.22;0.22;;;8.00;91.50;;;;;;5041952;28;20032;-89
2020/12/06 12:37:09;;;;;;;0.10;0.10;;;8.00;62.90;;;;;;5027689;28;20112;-88
2020/12/06 12:39:35;;;;;;;0.65;0.65;;;8.00;40.40;;;;;;5019282;28;20494;-87
2020/12/06 12:42:01;;;;;;;0.10;0.10;;;7.70;23.50;;;;;;5017337;28;20139;-86
2020/12/06 12:44:32;;;;;;;0.17;0.17;;;7.30;8.50;;;;;;5023711;28;20028;-88
2020/12/06 12:47:00;;;;;;;0.10;0.10;;;6.90;1.00;;;;;;5025782;28;20052;-88
2020/12/06 12:49:27;;;;;;;0.10;0.10;;;6.40;1.00;;;;;;5022173;28;20021;-88
2020/12/06 12:51:57;;;;;;;0.10;0.10;;;6.10;1.00;;;;;;5022891;28;20442;-85
2020/12/06 12:54:23;;;;;;;0.00;0.00;;;5.90;35.70;;;;;;5022683;28;20036;-87
2020/12/06 12:56:49;;;;;;;0.20;0.20;;;5.60;82.60;;;;;;5028637;28;20127;-90
2020/12/06 12:59:14;;;;;;;0.00;0.00;;;5.50;99.90;;;;;;5033461;28;20097;-90
2020/12/06 13:01:41;;;;;;;0.10;0.10;;;5.40;99.90;;;;;;5025237;28;20040;-90
2020/12/06 13:04:07;;;;;;;0.00;0.00;;;5.50;99.90;;;;;;5029712;28;20026;-89
2020/12/06 13:06:33;;;;;;;0.10;0.10;;;5.60;99.90;;;;;;5044659;28;20032;-88